sensor_id;sensor_type;location;lat;lon;timestamp;temperature;humidity
29687;DHT22;16599;47.078;15.536;2022-09-17T00:01:09;12.10;99.90
29687;DHT22;16599;47.078;15.536;2022-09-17T00:03:40;12.10;99.90
29687;DHT22;16599;47.078;15.536;2022-09-17T00:06:09;12.10;99.90
29687;DHT22;16599;47.078;15.536;2022-09-17T00:08:39;12.10;99.90
29687;DHT22;16599;47.078;15.536;2022-09-17T00:11:12;12.10;99.90
29687;DHT22;16599;47.078;15.536;2022-09-17T00:13:40;12.10;99.90
29687;DHT22;16599;47.078;15.536;2022-09-17T00:16:08;12.10;99.90
29687;DHT22;16599;47.078;15.536;2022-09-17T00:18:35;12.10;99.90
29687;DHT22;16599;47.078;15.536;2022-09-17T00:21:07;12.10;99.90
29687;DHT22;16599;47.078;15.536;2022-09-17T00:23:41;12.10;99.90
29687;DHT22;16599;47.078;15.536;2022-09-17T00:26:08;12.10;99.90
29687;DHT22;16599;47.078;15.536;2022-09-17T00:28:35;12.00;99.90
29687;DHT22;16599;47.078;15.536;2022-09-17T00:31:06;12.00;99.90
29687;DHT22;16599;47.078;15.536;2022-09-17T00:33:33;12.10;99.90
29687;DHT22;16599;47.078;15.536;2022-09-17T00:36:02;12.10;99.90
29687;DHT22;16599;47.078;15.536;2022-09-17T00:38:29;12.20;99.90
29687;DHT22;16599;47.078;15.536;2022-09-17T00:40:56;12.10;99.90
29687;DHT22;16599;47.078;15.536;2022-09-17T00:43:54;12.10;99.90
29687;DHT22;16599;47.078;15.536;2022-09-17T00:49:01;12.20;99.90
29687;DHT22;16599;47.078;15.536;2022-09-17T00:51:36;12.20;99.90
29687;DHT22;16599;47.078;15.536;2022-09-17T00:54:06;12.20;99.90
29687;DHT22;16599;47.078;15.536;2022-09-17T00:56:36;12.20;99.90
29687;DHT22;16599;47.078;15.536;2022-09-17T00:59:04;12.20;99.90
29687;DHT22;16599;47.078;15.536;2022-09-17T01:01:32;12.20;99.90
29687;DHT22;16599;47.078;15.536;2022-09-17T01:03:58;12.10;99.90
29687;DHT22;16599;47.078;15.536;2022-09-17T01:06:33;12.10;99.90
29687;DHT22;16599;47.078;15.536;2022-09-17T01:09:12;12.10;99.90
29687;DHT22;16599;47.078;15.536;2022-09-17T01:12:12;12.00;99.90
29687;DHT22;16599;47.078;15.536;2022-09-17T01:21:02;12.10;99.90
29687;DHT22;16599;47.078;15.536;2022-09-17T01:31:57;12.10;99.90
29687;DHT22;16599;47.078;15.536;2022-09-17T01:34:32;11.90;99.90
29687;DHT22;16599;47.078;15.536;2022-09-17T01:37:09;11.90;99.90
29687;DHT22;16599;47.078;15.536;2022-09-17T01:39:49;12.00;99.90
29687;DHT22;16599;47.078;15.536;2022-09-17T01:42:35;11.90;99.90
29687;DHT22;16599;47.078;15.536;2022-09-17T01:45:14;12.00;99.90
29687;DHT22;16599;47.078;15.536;2022-09-17T01:47:52;11.90;99.90
29687;DHT22;16599;47.078;15.536;2022-09-17T01:50:36;11.90;99.90
29687;DHT22;16599;47.078;15.536;2022-09-17T01:53:04;12.00;99.90
29687;DHT22;16599;47.078;15.536;2022-09-17T01:55:36;11.90;99.90
29687;DHT22;16599;47.078;15.536;2022-09-17T01:58:09;11.80;99.90
29687;DHT22;16599;47.078;15.536;2022-09-17T02:00:40;11.90;99.90
29687;DHT22;16599;47.078;15.536;2022-09-17T02:03:21;12.00;99.90
29687;DHT22;16599;47.078;15.536;2022-09-17T02:06:12;12.00;99.90
29687;DHT22;16599;47.078;15.536;2022-09-17T02:08:52;12.20;99.90
29687;DHT22;16599;47.078;15.536;2022-09-17T02:11:20;12.20;99.90
29687;DHT22;16599;47.078;15.536;2022-09-17T02:13:58;12.20;99.90
29687;DHT22;16599;47.078;15.536;2022-09-17T02:16:31;12.10;99.90
29687;DHT22;16599;47.078;15.536;2022-09-17T02:19:22;12.10;99.90
29687;DHT22;16599;47.078;15.536;2022-09-17T02:22:20;12.20;99.90
29687;DHT22;16599;47.078;15.536;2022-09-17T02:27:46;12.00;99.90
29687;DHT22;16599;47.078;15.536;2022-09-17T02:30:15;12.00;99.90
29687;DHT22;16599;47.078;15.536;2022-09-17T02:32:42;12.00;99.90
29687;DHT22;16599;47.078;15.536;2022-09-17T02:35:10;11.90;99.90
29687;DHT22;16599;47.078;15.536;2022-09-17T02:37:42;11.90;99.90
29687;DHT22;16599;47.078;15.536;2022-09-17T02:40:11;11.80;99.90
29687;DHT22;16599;47.078;15.536;2022-09-17T02:43:02;11.90;99.90
29687;DHT22;16599;47.078;15.536;2022-09-17T02:46:13;12.00;99.90
29687;DHT22;16599;47.078;15.536;2022-09-17T02:54:25;12.10;99.90
29687;DHT22;16599;47.078;15.536;2022-09-17T03:02:06;11.80;99.90
29687;DHT22;16599;47.078;15.536;2022-09-17T03:04:36;11.80;99.90
29687;DHT22;16599;47.078;15.536;2022-09-17T03:07:08;11.80;99.90
29687;DHT22;16599;47.078;15.536;2022-09-17T03:09:37;11.80;99.90
29687;DHT22;16599;47.078;15.536;2022-09-17T03:12:04;11.90;99.90
29687;DHT22;16599;47.078;15.536;2022-09-17T03:14:31;11.90;99.90
29687;DHT22;16599;47.078;15.536;2022-09-17T03:16:58;12.00;99.90
29687;DHT22;16599;47.078;15.536;2022-09-17T03:19:25;12.00;99.90
29687;DHT22;16599;47.078;15.536;2022-09-17T03:21:53;11.90;99.90
29687;DHT22;16599;47.078;15.536;2022-09-17T03:24:20;12.00;99.90
29687;DHT22;16599;47.078;15.536;2022-09-17T03:26:47;12.00;99.90
29687;DHT22;16599;47.078;15.536;2022-09-17T03:29:15;12.00;99.90
29687;DHT22;16599;47.078;15.536;2022-09-17T03:31:42;12.00;99.90
29687;DHT22;16599;47.078;15.536;2022-09-17T03:34:09;12.00;99.90
29687;DHT22;16599;47.078;15.536;2022-09-17T03:36:36;12.00;99.90
29687;DHT22;16599;47.078;15.536;2022-09-17T03:39:03;11.90;99.90
29687;DHT22;16599;47.078;15.536;2022-09-17T03:41:29;11.90;99.90
29687;DHT22;16599;47.078;15.536;2022-09-17T03:43:56;11.90;99.90
29687;DHT22;16599;47.078;15.536;2022-09-17T03:46:23;11.90;99.90
29687;DHT22;16599;47.078;15.536;2022-09-17T03:48:50;11.90;99.90
29687;DHT22;16599;47.078;15.536;2022-09-17T03:51:17;11.90;99.90
29687;DHT22;16599;47.078;15.536;2022-09-17T03:53:43;11.90;99.90
29687;DHT22;16599;47.078;15.536;2022-09-17T03:56:10;11.80;99.90
29687;DHT22;16599;47.078;15.536;2022-09-17T03:58:38;11.90;99.90
29687;DHT22;16599;47.078;15.536;2022-09-17T04:01:04;11.90;99.90
29687;DHT22;16599;47.078;15.536;2022-09-17T04:03:32;11.90;99.90
29687;DHT22;16599;47.078;15.536;2022-09-17T04:05:59;12.00;99.90
29687;DHT22;16599;47.078;15.536;2022-09-17T04:08:26;12.00;99.90
29687;DHT22;16599;47.078;15.536;2022-09-17T04:10:53;12.00;99.90
29687;DHT22;16599;47.078;15.536;2022-09-17T04:13:20;11.90;99.90
29687;DHT22;16599;47.078;15.536;2022-09-17T04:15:47;11.90;99.90
29687;DHT22;16599;47.078;15.536;2022-09-17T04:18:14;11.90;99.90
29687;DHT22;16599;47.078;15.536;2022-09-17T04:20:42;11.90;99.90
29687;DHT22;16599;47.078;15.536;2022-09-17T04:23:10;12.00;99.90
29687;DHT22;16599;47.078;15.536;2022-09-17T04:25:37;11.90;99.90
29687;DHT22;16599;47.078;15.536;2022-09-17T04:28:04;11.90;99.90
29687;DHT22;16599;47.078;15.536;2022-09-17T04:30:31;11.80;99.90
29687;DHT22;16599;47.078;15.536;2022-09-17T04:32:58;11.80;99.90
29687;DHT22;16599;47.078;15.536;2022-09-17T04:35:25;11.80;99.90
29687;DHT22;16599;47.078;15.536;2022-09-17T04:37:53;11.90;99.90
29687;DHT22;16599;47.078;15.536;2022-09-17T04:40:21;11.90;99.90
29687;DHT22;16599;47.078;15.536;2022-09-17T04:42:53;11.90;99.90
29687;DHT22;16599;47.078;15.536;2022-09-17T04:45:21;11.90;99.90
29687;DHT22;16599;47.078;15.536;2022-09-17T04:47:48;11.90;99.90
29687;DHT22;16599;47.078;15.536;2022-09-17T04:50:20;12.00;99.90
29687;DHT22;16599;47.078;15.536;2022-09-17T04:52:47;11.90;99.90
29687;DHT22;16599;47.078;15.536;2022-09-17T04:55:15;12.00;99.90
29687;DHT22;16599;47.078;15.536;2022-09-17T04:57:49;11.90;99.90
29687;DHT22;16599;47.078;15.536;2022-09-17T05:00:17;11.70;99.90
29687;DHT22;16599;47.078;15.536;2022-09-17T05:02:46;11.60;99.90
29687;DHT22;16599;47.078;15.536;2022-09-17T05:05:14;11.70;99.90
29687;DHT22;16599;47.078;15.536;2022-09-17T05:07:41;11.70;99.90
29687;DHT22;16599;47.078;15.536;2022-09-17T05:10:09;11.80;99.90
29687;DHT22;16599;47.078;15.536;2022-09-17T05:12:37;11.90;99.90
29687;DHT22;16599;47.078;15.536;2022-09-17T05:15:04;11.90;99.90
29687;DHT22;16599;47.078;15.536;2022-09-17T05:17:31;11.90;99.90
29687;DHT22;16599;47.078;15.536;2022-09-17T05:19:58;11.80;99.90
29687;DHT22;16599;47.078;15.536;2022-09-17T05:22:25;11.80;99.90
29687;DHT22;16599;47.078;15.536;2022-09-17T05:24:51;11.90;99.90
29687;DHT22;16599;47.078;15.536;2022-09-17T05:27:18;11.90;99.90
29687;DHT22;16599;47.078;15.536;2022-09-17T05:29:45;11.90;99.90
29687;DHT22;16599;47.078;15.536;2022-09-17T05:32:12;11.90;99.90
29687;DHT22;16599;47.078;15.536;2022-09-17T05:34:39;11.90;99.90
29687;DHT22;16599;47.078;15.536;2022-09-17T05:37:09;11.90;99.90
29687;DHT22;16599;47.078;15.536;2022-09-17T05:39:36;11.90;99.90
29687;DHT22;16599;47.078;15.536;2022-09-17T05:42:03;11.70;99.90
29687;DHT22;16599;47.078;15.536;2022-09-17T05:44:30;11.60;99.90
29687;DHT22;16599;47.078;15.536;2022-09-17T05:46:57;11.60;99.90
29687;DHT22;16599;47.078;15.536;2022-09-17T05:49:24;11.70;99.90
29687;DHT22;16599;47.078;15.536;2022-09-17T05:51:51;11.80;99.90
29687;DHT22;16599;47.078;15.536;2022-09-17T05:54:18;11.80;99.90
29687;DHT22;16599;47.078;15.536;2022-09-17T05:56:45;11.90;99.90
29687;DHT22;16599;47.078;15.536;2022-09-17T05:59:11;11.90;99.90
29687;DHT22;16599;47.078;15.536;2022-09-17T06:01:38;11.90;99.90
29687;DHT22;16599;47.078;15.536;2022-09-17T06:04:05;11.80;99.90
29687;DHT22;16599;47.078;15.536;2022-09-17T06:06:32;11.80;99.90
29687;DHT22;16599;47.078;15.536;2022-09-17T06:08:59;11.80;99.90
29687;DHT22;16599;47.078;15.536;2022-09-17T06:11:26;11.80;99.90
29687;DHT22;16599;47.078;15.536;2022-09-17T06:13:53;11.80;99.90
29687;DHT22;16599;47.078;15.536;2022-09-17T06:16:22;11.70;99.90
29687;DHT22;16599;47.078;15.536;2022-09-17T06:18:49;11.60;99.90
29687;DHT22;16599;47.078;15.536;2022-09-17T06:21:18;11.70;99.90
29687;DHT22;16599;47.078;15.536;2022-09-17T06:23:47;11.70;99.90
29687;DHT22;16599;47.078;15.536;2022-09-17T06:26:14;11.70;99.90
29687;DHT22;16599;47.078;15.536;2022-09-17T06:28:40;11.80;99.90
29687;DHT22;16599;47.078;15.536;2022-09-17T06:31:09;11.80;99.90
29687;DHT22;16599;47.078;15.536;2022-09-17T06:33:36;11.80;99.90
29687;DHT22;16599;47.078;15.536;2022-09-17T06:36:08;11.90;99.90
29687;DHT22;16599;47.078;15.536;2022-09-17T06:38:40;11.80;99.90
29687;DHT22;16599;47.078;15.536;2022-09-17T06:41:07;11.80;99.90
29687;DHT22;16599;47.078;15.536;2022-09-17T06:43:34;11.90;99.90
29687;DHT22;16599;47.078;15.536;2022-09-17T06:46:03;11.80;99.90
29687;DHT22;16599;47.078;15.536;2022-09-17T06:48:36;11.70;99.90
29687;DHT22;16599;47.078;15.536;2022-09-17T06:51:09;11.70;99.90
29687;DHT22;16599;47.078;15.536;2022-09-17T06:53:36;11.70;99.90
29687;DHT22;16599;47.078;15.536;2022-09-17T06:56:04;11.70;99.90
29687;DHT22;16599;47.078;15.536;2022-09-17T06:58:33;11.60;99.90
29687;DHT22;16599;47.078;15.536;2022-09-17T07:01:03;11.80;99.90
29687;DHT22;16599;47.078;15.536;2022-09-17T07:03:31;11.80;99.90
29687;DHT22;16599;47.078;15.536;2022-09-17T07:05:58;11.70;99.90
29687;DHT22;16599;47.078;15.536;2022-09-17T07:08:25;11.70;99.90
29687;DHT22;16599;47.078;15.536;2022-09-17T07:10:56;11.60;99.90
29687;DHT22;16599;47.078;15.536;2022-09-17T07:13:24;11.50;99.90
29687;DHT22;16599;47.078;15.536;2022-09-17T07:15:59;11.50;99.90
29687;DHT22;16599;47.078;15.536;2022-09-17T07:18:26;11.60;99.90
29687;DHT22;16599;47.078;15.536;2022-09-17T07:20:55;11.60;99.90
29687;DHT22;16599;47.078;15.536;2022-09-17T07:23:24;11.60;99.90
29687;DHT22;16599;47.078;15.536;2022-09-17T07:25:55;11.40;99.90
29687;DHT22;16599;47.078;15.536;2022-09-17T07:28:23;11.30;99.90
29687;DHT22;16599;47.078;15.536;2022-09-17T07:30:50;11.40;99.90
29687;DHT22;16599;47.078;15.536;2022-09-17T07:33:19;11.40;99.90
29687;DHT22;16599;47.078;15.536;2022-09-17T07:35:53;11.50;99.90
29687;DHT22;16599;47.078;15.536;2022-09-17T07:38:21;11.70;99.90
29687;DHT22;16599;47.078;15.536;2022-09-17T07:41:16;11.70;99.90
29687;DHT22;16599;47.078;15.536;2022-09-17T07:43:42;11.80;99.90
29687;DHT22;16599;47.078;15.536;2022-09-17T07:46:14;11.80;99.90
29687;DHT22;16599;47.078;15.536;2022-09-17T07:48:41;11.70;99.90
29687;DHT22;16599;47.078;15.536;2022-09-17T07:51:15;11.70;99.90
29687;DHT22;16599;47.078;15.536;2022-09-17T07:53:42;11.80;99.90
29687;DHT22;16599;47.078;15.536;2022-09-17T07:56:09;11.90;99.90
29687;DHT22;16599;47.078;15.536;2022-09-17T07:58:37;11.90;99.90
29687;DHT22;16599;47.078;15.536;2022-09-17T08:01:06;11.90;99.90
29687;DHT22;16599;47.078;15.536;2022-09-17T08:03:35;11.90;99.90
29687;DHT22;16599;47.078;15.536;2022-09-17T08:06:10;11.90;99.90
29687;DHT22;16599;47.078;15.536;2022-09-17T08:08:38;11.90;99.90
29687;DHT22;16599;47.078;15.536;2022-09-17T08:11:09;11.90;99.90
29687;DHT22;16599;47.078;15.536;2022-09-17T08:13:37;11.90;99.90
29687;DHT22;16599;47.078;15.536;2022-09-17T08:16:06;11.90;99.90
29687;DHT22;16599;47.078;15.536;2022-09-17T08:18:33;12.00;99.90
29687;DHT22;16599;47.078;15.536;2022-09-17T08:21:03;12.00;99.90
29687;DHT22;16599;47.078;15.536;2022-09-17T08:23:30;12.10;99.90
29687;DHT22;16599;47.078;15.536;2022-09-17T08:26:00;12.10;99.90
29687;DHT22;16599;47.078;15.536;2022-09-17T08:28:29;12.10;99.90
29687;DHT22;16599;47.078;15.536;2022-09-17T08:31:01;12.10;99.90
29687;DHT22;16599;47.078;15.536;2022-09-17T08:33:36;12.10;99.90
29687;DHT22;16599;47.078;15.536;2022-09-17T08:36:05;12.10;99.90
29687;DHT22;16599;47.078;15.536;2022-09-17T08:38:34;12.20;99.90
29687;DHT22;16599;47.078;15.536;2022-09-17T08:43:54;12.10;99.90
29687;DHT22;16599;47.078;15.536;2022-09-17T08:46:24;12.00;99.90
29687;DHT22;16599;47.078;15.536;2022-09-17T08:49:22;11.70;99.90
29687;DHT22;16599;47.078;15.536;2022-09-17T08:54:49;11.50;99.90
29687;DHT22;16599;47.078;15.536;2022-09-17T09:00:16;11.90;99.90
29687;DHT22;16599;47.078;15.536;2022-09-17T09:03:07;11.90;99.90
29687;DHT22;16599;47.078;15.536;2022-09-17T09:05:43;11.90;99.90
29687;DHT22;16599;47.078;15.536;2022-09-17T09:10:53;11.90;99.90
29687;DHT22;16599;47.078;15.536;2022-09-17T09:13:23;11.90;99.90
29687;DHT22;16599;47.078;15.536;2022-09-17T09:16:07;11.90;99.90
29687;DHT22;16599;47.078;15.536;2022-09-17T09:18:39;12.00;99.90
29687;DHT22;16599;47.078;15.536;2022-09-17T09:21:13;12.10;99.90
29687;DHT22;16599;47.078;15.536;2022-09-17T09:24:04;12.10;99.90
29687;DHT22;16599;47.078;15.536;2022-09-17T09:27:23;12.20;99.90
29687;DHT22;16599;47.078;15.536;2022-09-17T09:35:28;12.10;99.90
29687;DHT22;16599;47.078;15.536;2022-09-17T09:43:42;12.10;99.90
29687;DHT22;16599;47.078;15.536;2022-09-17T09:46:35;12.20;99.90
29687;DHT22;16599;47.078;15.536;2022-09-17T09:57:16;12.50;99.90
29687;DHT22;16599;47.078;15.536;2022-09-17T09:59:43;12.50;99.90
29687;DHT22;16599;47.078;15.536;2022-09-17T10:02:10;12.40;99.90
29687;DHT22;16599;47.078;15.536;2022-09-17T10:04:37;12.50;99.90
29687;DHT22;16599;47.078;15.536;2022-09-17T10:07:10;12.70;99.90
29687;DHT22;16599;47.078;15.536;2022-09-17T10:09:44;12.80;99.90
29687;DHT22;16599;47.078;15.536;2022-09-17T10:14:40;13.00;99.90
29687;DHT22;16599;47.078;15.536;2022-09-17T10:17:22;12.90;99.90
29687;DHT22;16599;47.078;15.536;2022-09-17T10:22:38;13.00;99.90
29687;DHT22;16599;47.078;15.536;2022-09-17T10:25:33;13.10;99.90
29687;DHT22;16599;47.078;15.536;2022-09-17T10:28:03;12.70;99.90
29687;DHT22;16599;47.078;15.536;2022-09-17T10:30:31;12.90;99.90
29687;DHT22;16599;47.078;15.536;2022-09-17T10:33:19;12.70;99.90
29687;DHT22;16599;47.078;15.536;2022-09-17T10:39:32;12.60;99.90
29687;DHT22;16599;47.078;15.536;2022-09-17T10:42:16;12.50;99.90
29687;DHT22;16599;47.078;15.536;2022-09-17T10:44:57;12.30;99.90
29687;DHT22;16599;47.078;15.536;2022-09-17T10:47:44;12.30;99.90
29687;DHT22;16599;47.078;15.536;2022-09-17T10:50:16;12.30;99.90
29687;DHT22;16599;47.078;15.536;2022-09-17T10:52:49;12.40;99.90
29687;DHT22;16599;47.078;15.536;2022-09-17T10:55:47;12.40;99.90
29687;DHT22;16599;47.078;15.536;2022-09-17T11:04:12;12.20;99.90
29687;DHT22;16599;47.078;15.536;2022-09-17T11:17:42;11.90;99.90
29687;DHT22;16599;47.078;15.536;2022-09-17T11:26:47;11.60;99.90
29687;DHT22;16599;47.078;15.536;2022-09-17T11:35:01;12.00;99.90
29687;DHT22;16599;47.078;15.536;2022-09-17T11:41:20;12.00;99.90
29687;DHT22;16599;47.078;15.536;2022-09-17T12:11:21;12.10;99.90
29687;DHT22;16599;47.078;15.536;2022-09-17T12:13:51;11.90;99.90
29687;DHT22;16599;47.078;15.536;2022-09-17T12:16:35;12.00;99.90
29687;DHT22;16599;47.078;15.536;2022-09-17T12:21:46;12.20;99.90
29687;DHT22;16599;47.078;15.536;2022-09-17T12:24:26;12.10;99.90
29687;DHT22;16599;47.078;15.536;2022-09-17T12:27:18;12.10;99.90
29687;DHT22;16599;47.078;15.536;2022-09-17T12:33:03;12.10;99.90
29687;DHT22;16599;47.078;15.536;2022-09-17T12:35:55;11.90;99.90
29687;DHT22;16599;47.078;15.536;2022-09-17T13:43:22;11.30;99.90
29687;DHT22;16599;47.078;15.536;2022-09-17T13:48:42;11.30;99.90
29687;DHT22;16599;47.078;15.536;2022-09-17T14:09:31;11.20;99.90
29687;DHT22;16599;47.078;15.536;2022-09-17T14:33:38;11.20;99.90
29687;DHT22;16599;47.078;15.536;2022-09-17T14:39:52;11.50;99.90
29687;DHT22;16599;47.078;15.536;2022-09-17T14:53:43;11.40;99.90
29687;DHT22;16599;47.078;15.536;2022-09-17T15:07:19;11.50;99.90
29687;DHT22;16599;47.078;15.536;2022-09-17T15:09:48;11.50;99.90
29687;DHT22;16599;47.078;15.536;2022-09-17T15:16:26;11.50;99.90
29687;DHT22;16599;47.078;15.536;2022-09-17T15:19:14;11.30;99.90
29687;DHT22;16599;47.078;15.536;2022-09-17T15:21:46;11.40;99.90
29687;DHT22;16599;47.078;15.536;2022-09-17T15:24:38;11.30;99.90
29687;DHT22;16599;47.078;15.536;2022-09-17T15:27:31;11.20;99.90
29687;DHT22;16599;47.078;15.536;2022-09-17T16:09:36;10.70;99.90
29687;DHT22;16599;47.078;15.536;2022-09-17T16:12:04;10.60;99.90
29687;DHT22;16599;47.078;15.536;2022-09-17T16:14:31;10.70;99.90
29687;DHT22;16599;47.078;15.536;2022-09-17T16:43:18;10.30;99.90
29687;DHT22;16599;47.078;15.536;2022-09-17T17:08:57;10.90;99.90
29687;DHT22;16599;47.078;15.536;2022-09-17T17:15:18;10.90;99.90
29687;DHT22;16599;47.078;15.536;2022-09-17T18:04:28;10.90;99.00
